Goodyears Corners, New York
Current Conditions -  °F | °C
As of 9:56 AM on Sunday 23 Nov 2014 (Local Time) from KITH Reporting Station
Scattered Clouds Scattered Clouds  
Wind Chill: 11°   Ceiling: Unl
Heat Index: 11°   Visibility: 10mi
Dew Point:   Wind: 7mph
Humidity: 52%   Direction: 200°SSW
Pressure: 30.09"   Gusts: NA
Location:  42.6734°N, 76.6263°W
Report Text: KITH 231456Z 20006KT 10SM SCT031 11/01 A3009 RMK AO2 50004 T01050011 SLP196
Loading
Personal Weather Stations






























Interactive Weather Map New forecast layout! Learn more

10-Day Weather Forecast

Advertisements
Track Severe Weather on mobile